createdAt,value
2022-12-28T00:01:58.909Z,97065.00
2022-12-28T00:06:08.974Z,97060.00
2022-12-28T00:10:12.030Z,97053.00
2022-12-28T00:14:15.082Z,97051.00
2022-12-28T00:18:18.407Z,97049.00
2022-12-28T00:22:22.973Z,97056.00
2022-12-28T00:26:27.821Z,97056.00
2022-12-28T00:30:35.907Z,97055.00
2022-12-28T00:35:09.626Z,97055.00
2022-12-28T00:39:14.075Z,97060.00
2022-12-28T00:43:51.135Z,97051.00
2022-12-28T00:47:54.230Z,97047.00
2022-12-28T00:52:28.306Z,97049.00
2022-12-28T00:56:32.797Z,97057.00
2022-12-28T01:01:07.262Z,97042.00
2022-12-28T01:05:43.946Z,97030.00
2022-12-28T01:09:47.035Z,97027.00
2022-12-28T01:13:53.530Z,97026.00
2022-12-28T01:17:56.572Z,97029.00
2022-12-28T01:22:39.130Z,97022.00
2022-12-28T01:26:46.730Z,97023.00
2022-12-28T01:31:25.146Z,97036.00
2022-12-28T01:35:29.633Z,97024.00
2022-12-28T01:40:14.848Z,97017.00
2022-12-28T01:44:45.885Z,97015.00
2022-12-28T01:49:16.370Z,97008.00
2022-12-28T01:53:21.184Z,97011.00
2022-12-28T01:57:28.431Z,97001.00
2022-12-28T02:02:11.330Z,96988.00
2022-12-28T02:06:16.191Z,96975.00
2022-12-28T02:10:58.829Z,96961.00
2022-12-28T02:15:03.443Z,96942.00
2022-12-28T02:19:40.473Z,96928.00
2022-12-28T02:24:14.514Z,96923.00
2022-12-28T02:28:45.179Z,96929.00
2022-12-28T02:32:58.148Z,96924.00
2022-12-28T02:37:27.081Z,96910.00
2022-12-28T02:41:32.214Z,96917.00
2022-12-28T02:45:57.660Z,96914.00
2022-12-28T02:50:07.425Z,96918.00
2022-12-28T02:55:11.040Z,96904.00
2022-12-28T02:59:39.418Z,96908.00
2022-12-28T03:03:58.739Z,96909.00
2022-12-28T03:08:23.016Z,96902.00
2022-12-28T03:12:32.273Z,96903.00
2022-12-28T03:17:03.001Z,96890.00
2022-12-28T03:21:28.885Z,96892.00
2022-12-28T03:25:54.356Z,96880.00
2022-12-28T03:30:19.877Z,96861.00
2022-12-28T03:34:26.006Z,96845.00
2022-12-28T03:38:40.765Z,96847.00
2022-12-28T03:43:04.960Z,96835.00
2022-12-28T03:47:11.780Z,96838.00
2022-12-28T03:51:20.463Z,96845.00
2022-12-28T03:55:29.093Z,96838.00
2022-12-28T03:59:32.607Z,96826.00
2022-12-28T04:03:36.927Z,96827.00
2022-12-28T04:07:42.258Z,96830.00
2022-12-28T04:11:46.956Z,96824.00
2022-12-28T04:16:00.979Z,96812.00
2022-12-28T04:20:11.977Z,96814.00
2022-12-28T04:24:17.469Z,96815.00
2022-12-28T04:28:24.452Z,96811.00
2022-12-28T04:32:27.794Z,96808.00
2022-12-28T04:36:30.868Z,96814.00
2022-12-28T04:40:34.234Z,96816.00
2022-12-28T04:44:39.204Z,96809.00
2022-12-28T04:48:43.219Z,96812.00
2022-12-28T04:52:49.373Z,96818.00
2022-12-28T04:56:52.508Z,96816.00
2022-12-28T05:01:04.114Z,96813.00
2022-12-28T05:05:07.880Z,96791.00
2022-12-28T05:09:14.026Z,96801.00
2022-12-28T05:13:19.818Z,96807.00
2022-12-28T05:17:24.228Z,96794.00
2022-12-28T05:21:30.879Z,96795.00
2022-12-28T05:25:34.248Z,96793.00
2022-12-28T05:29:37.407Z,96795.00
2022-12-28T05:33:42.560Z,96787.00
2022-12-28T05:37:49.428Z,96779.00
2022-12-28T05:41:52.546Z,96786.00
2022-12-28T05:45:56.131Z,96788.00
2022-12-28T05:50:01.383Z,96786.00
2022-12-28T05:54:08.554Z,96787.00
2022-12-28T05:58:22.238Z,96768.00
2022-12-28T06:02:27.840Z,96757.00
2022-12-28T06:06:34.812Z,96766.00
2022-12-28T06:10:40.905Z,96778.00
2022-12-28T06:14:45.759Z,96761.00
2022-12-28T06:18:49.498Z,96755.00
2022-12-28T06:22:53.908Z,96765.00
2022-12-28T06:26:58.520Z,96756.00
2022-12-28T06:31:05.836Z,96754.00
2022-12-28T06:35:12.229Z,96758.00
2022-12-28T06:39:19.598Z,96763.00
2022-12-28T06:43:24.847Z,96764.00
2022-12-28T06:47:33.130Z,96758.00
2022-12-28T06:51:41.528Z,96753.00
2022-12-28T06:55:56.640Z,96757.00
2022-12-28T06:59:59.770Z,96756.00
2022-12-28T07:04:07.969Z,96760.00
2022-12-28T07:08:12.924Z,96758.00
2022-12-28T07:12:20.454Z,96759.00
2022-12-28T07:20:38.596Z,96756.00
2022-12-28T07:24:45.535Z,96758.00
2022-12-28T07:28:51.371Z,96746.00
2022-12-28T07:32:54.492Z,96747.00
2022-12-28T07:36:58.234Z,96748.00
2022-12-28T07:41:08.711Z,96733.00
2022-12-28T07:45:17.618Z,96733.00
2022-12-28T07:49:23.410Z,96732.00
2022-12-28T07:54:21.144Z,96739.00
2022-12-28T07:58:57.843Z,96727.00
2022-12-28T08:03:55.657Z,96722.00
2022-12-28T08:08:03.911Z,96721.00
2022-12-28T08:12:10.025Z,96724.00
2022-12-28T08:16:44.652Z,96718.00
2022-12-28T08:21:20.329Z,96708.00
2022-12-28T08:25:24.723Z,96708.00
2022-12-28T08:29:27.821Z,96702.00
2022-12-28T08:34:19.841Z,96711.00
2022-12-28T08:38:42.768Z,96727.00
2022-12-28T08:42:47.449Z,96723.00
2022-12-28T08:47:24.030Z,96713.00
2022-12-28T08:52:00.823Z,96714.00
2022-12-28T08:56:38.398Z,96710.00
2022-12-28T09:01:18.580Z,96706.00
2022-12-28T09:05:54.284Z,96703.00
2022-12-28T09:09:59.574Z,96704.00
2022-12-28T09:14:35.933Z,96704.00
2022-12-28T09:19:10.152Z,96697.00
2022-12-28T09:23:49.663Z,96685.00
2022-12-28T09:27:59.467Z,96690.00
2022-12-28T09:32:02.778Z,96695.00
2022-12-28T09:36:40.413Z,96706.00
2022-12-28T09:40:44.931Z,96706.00
2022-12-28T09:45:00.688Z,96703.00
2022-12-28T09:49:27.563Z,96687.00
2022-12-28T09:53:36.491Z,96688.00
2022-12-28T09:58:16.549Z,96679.00
2022-12-28T10:02:30.294Z,96676.00
2022-12-28T10:06:36.884Z,96672.00
2022-12-28T10:11:10.677Z,96666.00
2022-12-28T10:15:49.806Z,96665.00
2022-12-28T10:19:54.957Z,96661.00
2022-12-28T10:24:32.972Z,96651.00
2022-12-28T10:29:05.428Z,96646.00
2022-12-28T10:33:16.886Z,96639.00
2022-12-28T10:37:45.699Z,96645.00
2022-12-28T10:42:27.359Z,96634.00
2022-12-28T10:46:57.300Z,96632.00
2022-12-28T10:51:12.590Z,96625.00
2022-12-28T10:55:39.917Z,96622.00
2022-12-28T11:00:13.741Z,96607.00
2022-12-28T11:04:19.844Z,96611.00
2022-12-28T11:08:25.756Z,96607.00
2022-12-28T11:13:02.000Z,96595.00
2022-12-28T11:17:38.768Z,96592.00
2022-12-28T11:22:14.629Z,96587.00
2022-12-28T11:26:48.486Z,96594.00
2022-12-28T11:31:40.359Z,96586.00
2022-12-28T11:36:06.960Z,96568.00
2022-12-28T11:40:50.610Z,96570.00
2022-12-28T11:45:43.072Z,96567.00
2022-12-28T11:50:23.439Z,96556.00
2022-12-28T11:55:01.832Z,96562.00
2022-12-28T11:59:38.075Z,96563.00
2022-12-28T12:04:20.042Z,96548.00
2022-12-28T12:14:00.621Z,96535.00
2022-12-28T12:18:40.456Z,96536.00
2022-12-28T12:23:19.399Z,96516.00
2022-12-28T12:27:49.975Z,96515.00
2022-12-28T12:32:03.217Z,96505.00
2022-12-28T12:36:41.270Z,96505.00
2022-12-28T12:41:09.888Z,96494.00
2022-12-28T12:45:48.065Z,96491.00
2022-12-28T12:50:25.970Z,96484.00
2022-12-28T12:54:40.906Z,96475.00
2022-12-28T12:59:18.736Z,96478.00
2022-12-28T13:03:36.434Z,96474.00
2022-12-28T13:08:34.211Z,96464.00
2022-12-28T13:12:42.315Z,96459.00
2022-12-28T13:17:16.923Z,96455.00
2022-12-28T13:21:22.497Z,96457.00
2022-12-28T13:25:30.721Z,96449.00
2022-12-28T13:29:40.150Z,96445.00
2022-12-28T13:33:43.352Z,96441.00
2022-12-28T13:38:22.827Z,96450.00
2022-12-28T13:42:33.880Z,96449.00
2022-12-28T13:47:08.037Z,96442.00
2022-12-28T13:51:13.756Z,96439.00
2022-12-28T13:55:22.145Z,96437.00
2022-12-28T13:59:59.638Z,96429.00
2022-12-28T14:04:50.741Z,96424.00
2022-12-28T14:08:34.208Z,96409.00
2022-12-28T14:13:06.692Z,96416.00
2022-12-28T14:17:12.554Z,96413.00
2022-12-28T14:21:17.039Z,96412.00
2022-12-28T14:25:24.608Z,96412.00
2022-12-28T14:29:31.585Z,96407.00
2022-12-28T14:34:06.380Z,96410.00
2022-12-28T14:38:20.045Z,96411.00
2022-12-28T14:42:27.527Z,96414.00
2022-12-28T14:46:36.518Z,96414.00
2022-12-28T14:51:24.541Z,96415.00
2022-12-28T14:55:44.559Z,96417.00
2022-12-28T14:59:52.075Z,96419.00
2022-12-28T15:04:30.294Z,96418.00
2022-12-28T15:08:33.475Z,96413.00
2022-12-28T15:12:41.022Z,96408.00
2022-12-28T15:16:44.098Z,96411.00
2022-12-28T15:20:47.427Z,96415.00
2022-12-28T15:24:52.341Z,96409.00
2022-12-28T15:29:47.809Z,96401.00
2022-12-28T15:33:57.519Z,96404.00
2022-12-28T15:38:02.596Z,96400.00
2022-12-28T15:42:05.768Z,96404.00
2022-12-28T15:46:52.933Z,96403.00
2022-12-28T15:50:56.257Z,96399.00
2022-12-28T15:54:59.916Z,96397.00
2022-12-28T15:59:04.864Z,96394.00
2022-12-28T16:03:09.354Z,96386.00
2022-12-28T16:07:12.495Z,96383.00
2022-12-28T16:11:17.623Z,96389.00
2022-12-28T16:15:56.632Z,96381.00
2022-12-28T16:20:01.208Z,96384.00
2022-12-28T16:24:04.475Z,96386.00
2022-12-28T16:28:38.324Z,96369.00
2022-12-28T16:32:42.549Z,96371.00
2022-12-28T16:36:48.446Z,96374.00
2022-12-28T16:40:52.542Z,96364.00
2022-12-28T16:44:55.582Z,96363.00
2022-12-28T16:49:03.240Z,96344.00
2022-12-28T16:53:08.059Z,96338.00
2022-12-28T16:57:41.973Z,96336.00
2022-12-28T17:02:19.050Z,96336.00
2022-12-28T17:06:32.266Z,96337.00
2022-12-28T17:10:36.703Z,96333.00
2022-12-28T17:14:42.989Z,96322.00
2022-12-28T17:19:17.057Z,96334.00
2022-12-28T17:23:20.112Z,96324.00
2022-12-28T17:27:24.535Z,96321.00
2022-12-28T17:31:58.573Z,96316.00
2022-12-28T17:36:03.631Z,96321.00
2022-12-28T17:40:08.139Z,96319.00
2022-12-28T17:44:49.704Z,96325.00
2022-12-28T17:49:17.637Z,96310.00
2022-12-28T17:53:22.831Z,96312.00
2022-12-28T17:57:56.725Z,96322.00
2022-12-28T18:02:05.115Z,96314.00
2022-12-28T18:06:36.003Z,96306.00
2022-12-28T18:11:17.617Z,96311.00
2022-12-28T18:15:20.673Z,96301.00
2022-12-28T18:19:25.637Z,96294.00
2022-12-28T18:23:30.826Z,96293.00
2022-12-28T18:28:04.623Z,96289.00
2022-12-28T18:32:41.388Z,96286.00
2022-12-28T18:37:22.056Z,96278.00
2022-12-28T18:41:55.973Z,96280.00
2022-12-28T18:46:33.413Z,96275.00
2022-12-28T18:51:09.410Z,96276.00
2022-12-28T18:55:45.779Z,96280.00
2022-12-28T19:00:23.127Z,96281.00
2022-12-28T19:05:00.503Z,96270.00
2022-12-28T19:09:59.933Z,96276.00
2022-12-28T19:14:57.756Z,96264.00
2022-12-28T19:19:39.291Z,96260.00
2022-12-28T19:24:14.648Z,96254.00
2022-12-28T19:28:48.855Z,96254.00
2022-12-28T19:33:27.639Z,96236.00
2022-12-28T19:38:10.638Z,96243.00
2022-12-28T19:42:38.295Z,96234.00
2022-12-28T19:46:43.179Z,96232.00
2022-12-28T19:50:48.939Z,96227.00
2022-12-28T19:55:24.049Z,96211.00
2022-12-28T19:59:59.998Z,96211.00
2022-12-28T20:04:34.111Z,96203.00
2022-12-28T20:09:08.176Z,96193.00
2022-12-28T20:13:50.414Z,96190.00
2022-12-28T20:18:21.104Z,96194.00
2022-12-28T20:22:27.393Z,96188.00
2022-12-28T20:27:01.435Z,96183.00
2022-12-28T20:31:37.809Z,96188.00
2022-12-28T20:36:18.507Z,96176.00
2022-12-28T20:40:49.096Z,96164.00
2022-12-28T20:45:27.483Z,96175.00
2022-12-28T20:50:06.253Z,96172.00
2022-12-28T20:54:42.436Z,96158.00
2022-12-28T20:58:48.545Z,96148.00
2022-12-28T21:03:31.404Z,96151.00
2022-12-28T21:08:03.457Z,96151.00
2022-12-28T21:12:08.128Z,96144.00
2022-12-28T21:17:06.093Z,96120.00
2022-12-28T21:21:15.809Z,96124.00
2022-12-28T21:25:44.898Z,96128.00
2022-12-28T21:30:18.583Z,96123.00
2022-12-28T21:34:55.307Z,96126.00
2022-12-28T21:39:32.308Z,96130.00
2022-12-28T21:43:38.147Z,96135.00
2022-12-28T21:48:16.658Z,96126.00
2022-12-28T21:52:21.631Z,96128.00
2022-12-28T21:56:25.015Z,96119.00
2022-12-28T22:01:20.906Z,96120.00
2022-12-28T22:05:41.326Z,96125.00
2022-12-28T22:10:05.181Z,96121.00
2022-12-28T22:14:11.336Z,96110.00
2022-12-28T22:22:56.829Z,96100.00
2022-12-28T22:27:01.921Z,96100.00
2022-12-28T22:31:07.713Z,96091.00
2022-12-28T22:35:15.441Z,96086.00
2022-12-28T22:39:46.386Z,96087.00
2022-12-28T22:43:54.591Z,96085.00
2022-12-28T22:48:00.565Z,96089.00
2022-12-28T22:52:39.741Z,96082.00
2022-12-28T22:56:42.862Z,96076.00
2022-12-28T23:01:21.762Z,96086.00
2022-12-28T23:05:27.931Z,96080.00
2022-12-28T23:10:07.071Z,96078.00
2022-12-28T23:14:31.050Z,96068.00
2022-12-28T23:18:53.542Z,96070.00
2022-12-28T23:23:14.313Z,96072.00
2022-12-28T23:27:37.424Z,96061.00
2022-12-28T23:31:42.728Z,96057.00
2022-12-28T23:35:46.294Z,96052.00
2022-12-28T23:39:52.044Z,96045.00
2022-12-28T23:43:59.379Z,96048.00
2022-12-28T23:48:04.858Z,96048.00
2022-12-28T23:52:09.597Z,96043.00
2022-12-28T23:56:12.696Z,96043.00
